Time;durP1;ratioP1;P1;durP2;ratioP2;P2;SDS_P1;SDS_P2;PMS_P1;PMS_P2;Temp;Humidity;BMP_temperature;BMP_pressure;BME280_temperature;BME280_humidity;BME280_pressure;Samples;Min_cycle;Max_cycle;Signal;HPM_P1;HPM_P2
2022/08/12 00:45:13;;;;;;;3.08;2.08;;;20.70;1.00;;;;;;7360369;19;20014;-66
2022/08/12 00:47:43;;;;;;;2.75;2.08;;;20.70;1.00;;;;;;7350265;19;20010;-66
2022/08/12 00:50:17;;;;;;;3.65;2.28;;;20.60;1.00;;;;;;7370869;19;20010;-66
2022/08/12 00:52:48;;;;;;;6.50;2.22;;;20.60;1.00;;;;;;7381162;19;20378;-66
2022/08/12 00:55:20;;;;;;;3.92;2.25;;;20.50;1.00;;;;;;7358636;19;20011;-65
2022/08/12 00:57:52;;;;;;;5.03;2.30;;;20.60;1.00;;;;;;7349356;19;20011;-65
2022/08/12 01:00:27;;;;;;;2.70;2.33;;;20.60;1.00;;;;;;7366393;19;20611;-66
2022/08/12 01:02:58;;;;;;;5.15;2.22;;;20.70;1.00;;;;;;7368373;19;20074;-65
2022/08/12 01:13:43;;;;;;;3.28;2.20;;;20.60;1.00;;;;;;7367654;19;20086;-65
2022/08/12 01:16:18;;;;;;;4.60;2.30;;;20.60;1.00;;;;;;7363725;19;20779;-66
2022/08/12 01:18:50;;;;;;;3.63;2.10;;;20.50;1.00;;;;;;7362593;19;20014;-66
2022/08/12 01:21:45;;;;;;;2.40;2.20;;;20.60;1.00;;;;;;7367741;19;20021;-66
2022/08/12 01:24:48;;;;;;;3.20;2.10;;;20.60;1.00;;;;;;7367022;19;20015;-66
2022/08/12 01:27:20;;;;;;;6.15;2.40;;;20.60;1.00;;;;;;7357581;19;20512;-66
2022/08/12 01:29:54;;;;;;;2.97;2.10;;;20.60;1.00;;;;;;7366791;19;20945;-65
2022/08/12 01:32:25;;;;;;;7.55;2.20;;;20.50;1.00;;;;;;7366606;19;20053;-65
2022/08/12 01:35:03;;;;;;;4.15;2.38;;;20.60;1.00;;;;;;7387427;19;20486;-66
2022/08/12 01:37:38;;;;;;;4.40;2.13;;;20.60;1.00;;;;;;7355665;19;20335;-66
2022/08/12 01:40:14;;;;;;;4.55;2.55;;;20.50;1.00;;;;;;7364513;19;20093;-66
2022/08/12 01:43:08;;;;;;;3.13;2.30;;;20.50;1.00;;;;;;7366319;19;20017;-66
2022/08/12 01:45:43;;;;;;;2.75;1.90;;;20.40;1.00;;;;;;7366173;19;20006;-66
2022/08/12 01:48:26;;;;;;;4.88;2.50;;;20.30;1.00;;;;;;7357936;19;20021;-66
2022/08/12 01:51:04;;;;;;;4.85;2.40;;;20.20;1.00;;;;;;7367455;19;20027;-65
2022/08/12 01:53:48;;;;;;;2.60;2.13;;;20.10;1.00;;;;;;7364006;19;20018;-66
2022/08/12 01:56:26;;;;;;;3.13;2.20;;;20.00;1.00;;;;;;7361272;19;20660;-66
2022/08/12 02:01:43;;;;;;;4.88;2.20;;;19.90;1.00;;;;;;7366265;19;20470;-65
2022/08/12 02:13:21;;;;;;;3.50;2.42;;;19.60;1.00;;;;;;7365572;19;20118;-66
2022/08/12 02:16:24;;;;;;;2.65;2.17;;;19.60;1.00;;;;;;7362250;19;20009;-67
2022/08/12 02:19:09;;;;;;;2.47;2.05;;;19.60;1.00;;;;;;7362887;19;20010;-67
2022/08/12 02:22:01;;;;;;;2.28;2.08;;;19.50;1.00;;;;;;7365118;19;20011;-67
2022/08/12 02:24:35;;;;;;;2.88;2.45;;;19.30;1.00;;;;;;7365074;19;20011;-66
2022/08/12 02:27:09;;;;;;;3.50;2.10;;;19.20;1.00;;;;;;7357420;19;20006;-66
2022/08/12 02:29:43;;;;;;;3.35;2.28;;;19.20;1.00;;;;;;7363856;19;20010;-66
2022/08/12 02:32:14;;;;;;;4.55;2.50;;;19.10;1.00;;;;;;7377038;19;20025;-65
2022/08/12 02:34:46;;;;;;;4.05;2.28;;;19.00;1.00;;;;;;7386598;19;20018;-67
2022/08/12 02:37:16;;;;;;;3.45;2.40;;;18.90;1.00;;;;;;7353953;19;20013;-65
2022/08/12 02:39:53;;;;;;;3.40;2.65;;;18.80;1.00;;;;;;7363541;19;20003;-65
2022/08/12 02:42:25;;;;;;;2.88;2.35;;;18.70;1.00;;;;;;7363341;19;20478;-66
2022/08/12 02:44:59;;;;;;;5.50;2.75;;;18.70;1.00;;;;;;7364416;19;20010;-66
2022/08/12 02:47:32;;;;;;;;;;;18.70;1.00;;;;;;7355651;19;20778;-65
2022/08/12 02:50:24;;;;;;;3.17;2.33;;;18.80;1.00;;;;;;7362591;19;20287;-66
2022/08/12 02:52:55;;;;;;;3.65;2.40;;;18.80;1.00;;;;;;7384623;19;20466;-66
2022/08/12 02:55:30;;;;;;;5.05;2.67;;;18.70;1.00;;;;;;7362649;19;20039;-67
2022/08/12 02:58:08;;;;;;;2.95;2.65;;;18.70;1.00;;;;;;7353675;19;20446;-66
2022/08/12 03:00:46;;;;;;;7.55;2.70;;;18.80;1.00;;;;;;7363145;19;20010;-66
2022/08/12 03:03:17;;;;;;;4.00;3.15;;;18.90;1.00;;;;;;7364258;19;20022;-66
2022/08/12 03:05:51;;;;;;;3.88;2.60;;;18.90;1.00;;;;;;7363186;19;20055;-66
2022/08/12 03:08:24;;;;;;;4.38;2.53;;;18.90;1.00;;;;;;7353927;19;20043;-66
2022/08/12 03:11:06;;;;;;;2.80;2.40;;;18.90;1.00;;;;;;7385479;19;20021;-65
2022/08/12 03:13:47;;;;;;;2.90;2.55;;;18.90;1.00;;;;;;7363537;19;20047;-65
2022/08/12 03:16:20;;;;;;;6.35;2.40;;;18.80;1.00;;;;;;7359598;19;20052;-66
2022/08/12 03:18:51;;;;;;;6.07;2.53;;;18.80;1.00;;;;;;7358274;19;20075;-66
2022/08/12 03:21:23;;;;;;;4.13;2.42;;;18.70;1.00;;;;;;7362829;19;20538;-65
2022/08/12 03:24:17;;;;;;;4.78;3.00;;;18.60;1.00;;;;;;7362000;19;20014;-65
2022/08/12 03:26:50;;;;;;;3.42;2.38;;;18.50;1.00;;;;;;7356560;19;20039;-66
2022/08/12 03:29:21;;;;;;;4.10;2.40;;;18.40;1.00;;;;;;7362170;19;20354;-66
2022/08/12 03:31:59;;;;;;;2.63;2.25;;;18.40;1.00;;;;;;7383464;19;20466;-66
2022/08/12 03:34:34;;;;;;;4.72;2.30;;;18.40;1.00;;;;;;7363384;19;20114;-65
2022/08/12 03:37:07;;;;;;;3.85;2.60;;;18.30;1.00;;;;;;7351145;19;20011;-67
2022/08/12 03:39:44;;;;;;;4.38;2.72;;;18.20;1.00;;;;;;7361889;19;20370;-66
2022/08/12 03:42:24;;;;;;;4.07;2.50;;;18.30;1.00;;;;;;7361106;19;20010;-65
2022/08/12 04:01:42;;;;;;;3.47;2.53;;;18.10;1.00;;;;;;7362340;19;20010;-65
2022/08/12 04:04:15;;;;;;;4.72;2.55;;;18.10;1.00;;;;;;7361511;19;20476;-65
2022/08/12 04:06:46;;;;;;;3.55;2.88;;;18.20;1.00;;;;;;7353637;19;20007;-65
2022/08/12 04:09:16;;;;;;;3.53;2.40;;;18.20;1.00;;;;;;7358709;19;20010;-65
2022/08/12 04:14:29;;;;;;;4.88;2.92;;;18.00;1.00;;;;;;7361855;19;20018;-67
2022/08/12 04:17:00;;;;;;;4.57;2.78;;;17.90;1.00;;;;;;7372787;19;20014;-65
2022/08/12 04:19:33;;;;;;;4.30;2.50;;;17.90;1.00;;;;;;7361363;19;20023;-65
2022/08/12 04:22:02;;;;;;;5.72;2.70;;;17.90;1.00;;;;;;7360341;19;20713;-65
2022/08/12 04:24:35;;;;;;;3.25;2.50;;;17.90;1.00;;;;;;7361230;19;20014;-65
2022/08/12 04:27:11;;;;;;;4.28;2.67;;;18.00;1.00;;;;;;7352409;19;20030;-65
2022/08/12 04:29:42;;;;;;;5.60;2.65;;;18.00;1.00;;;;;;7360239;19;20030;-65
2022/08/12 04:32:33;;;;;;;3.85;2.75;;;18.60;1.00;;;;;;7360418;19;20435;-65
2022/08/12 04:35:06;;;;;;;6.15;3.17;;;19.70;1.00;;;;;;7387855;19;20632;-65
2022/08/12 04:37:36;;;;;;;5.20;2.60;;;20.10;1.00;;;;;;7356493;19;20054;-66
2022/08/12 04:40:27;;;;;;;8.77;2.78;;;20.80;1.00;;;;;;7367464;19;20019;-65
2022/08/12 04:42:59;;;;;;;5.13;2.75;;;20.60;1.00;;;;;;7365919;19;20019;-65
2022/08/12 04:45:31;;;;;;;5.65;2.88;;;20.90;1.00;;;;;;7367447;19;20343;-67
2022/08/12 04:48:01;;;;;;;4.50;2.30;;;21.20;1.00;;;;;;7358696;19;20018;-66
2022/08/12 04:50:35;;;;;;;3.97;2.08;;;21.50;1.00;;;;;;7365930;19;20549;-67
2022/08/12 04:53:06;;;;;;;;;;;21.60;1.00;;;;;;7390718;19;20082;-66
2022/08/12 04:55:39;;;;;;;3.38;2.67;;;21.80;1.00;;;;;;7367268;19;19915;-66
2022/08/12 04:58:11;;;;;;;5.70;2.63;;;22.40;1.00;;;;;;7358229;19;20070;-65
2022/08/12 05:00:43;;;;;;;6.15;2.90;;;22.80;1.00;;;;;;7368078;19;20019;-66
2022/08/12 05:03:13;;;;;;;5.03;2.58;;;23.00;1.00;;;;;;7367550;19;20021;-65
2022/08/12 05:05:46;;;;;;;3.97;2.47;;;23.20;1.00;;;;;;7366469;19;20021;-66
2022/08/12 05:08:18;;;;;;;3.58;2.65;;;23.70;1.00;;;;;;7358531;19;20503;-65
2022/08/12 05:10:49;;;;;;;4.45;2.42;;;24.00;1.00;;;;;;7389450;19;20362;-66
2022/08/12 05:13:22;;;;;;;6.18;2.83;;;24.10;1.00;;;;;;7367194;19;20002;-66
2022/08/12 05:15:52;;;;;;;4.05;2.70;;;24.20;1.00;;;;;;7366260;19;20013;-66
2022/08/12 05:18:34;;;;;;;5.18;2.67;;;24.00;1.00;;;;;;7356950;19;20030;-65
2022/08/12 05:21:10;;;;;;;;;;;23.90;1.00;;;;;;7367093;19;20344;-66
2022/08/12 05:23:42;;;;;;;4.40;2.58;;;24.40;1.00;;;;;;7366551;19;20373;-66
2022/08/12 05:26:12;;;;;;;4.78;2.42;;;24.70;1.00;;;;;;7386257;19;20018;-65
2022/08/12 05:28:42;;;;;;;2.50;2.30;;;24.50;1.00;;;;;;7359817;19;20042;-67
2022/08/12 05:31:12;;;;;;;3.60;3.00;;;23.90;1.00;;;;;;7366333;19;20836;-66
2022/08/12 05:34:03;;;;;;;3.35;2.30;;;23.10;1.00;;;;;;7365135;19;20018;-66
2022/08/12 05:36:35;;;;;;;4.75;2.47;;;21.40;1.00;;;;;;7358345;19;20468;-67
2022/08/12 05:39:05;;;;;;;3.58;2.30;;;21.00;1.00;;;;;;7362167;19;20356;-66
2022/08/12 05:41:37;;;;;;;4.53;2.45;;;21.10;1.00;;;;;;7365450;19;20014;-66
2022/08/12 05:44:09;;;;;;;6.57;2.70;;;20.70;1.00;;;;;;7387872;19;20014;-65
2022/08/12 05:46:39;;;;;;;5.75;2.53;;;20.80;1.00;;;;;;7355699;19;20011;-66
2022/08/12 05:49:10;;;;;;;3.17;2.38;;;21.50;1.00;;;;;;7361028;19;20071;-66
2022/08/12 05:51:42;;;;;;;5.20;2.42;;;21.70;1.00;;;;;;7366229;19;20022;-66
2022/08/12 05:54:13;;;;;;;20.23;2.83;;;21.00;1.00;;;;;;7365755;19;20360;-66
2022/08/12 05:56:42;;;;;;;3.88;2.60;;;20.60;1.00;;;;;;7357136;19;20082;-66
2022/08/12 05:59:14;;;;;;;4.28;2.60;;;20.50;1.00;;;;;;7381856;19;20018;-66
2022/08/12 06:01:44;;;;;;;5.18;2.78;;;20.60;1.00;;;;;;7383704;19;20397;-66
2022/08/12 06:04:34;;;;;;;3.78;2.90;;;20.50;1.00;;;;;;7362342;19;20015;-66
2022/08/12 06:07:10;;;;;;;5.25;2.28;;;20.50;1.00;;;;;;7353071;19;20011;-65
2022/08/12 06:10:00;;;;;;;4.32;2.55;;;20.40;1.00;;;;;;7363038;19;20014;-66
2022/08/12 06:12:30;;;;;;;3.53;2.42;;;20.50;1.00;;;;;;7363469;19;20031;-66
2022/08/12 06:15:01;;;;;;;3.45;2.50;;;20.70;1.00;;;;;;7364089;19;20030;-65
2022/08/12 06:17:31;;;;;;;5.32;2.67;;;20.90;1.00;;;;;;7353341;19;20014;-68
2022/08/12 06:20:01;;;;;;;5.47;2.78;;;21.00;1.00;;;;;;7383390;19;20106;-65
2022/08/12 06:22:54;;;;;;;4.25;2.63;;;20.80;1.00;;;;;;7363117;19;20012;-67
2022/08/12 06:25:27;;;;;;;3.33;2.63;;;20.90;1.00;;;;;;7362720;19;20490;-65
2022/08/12 06:28:01;;;;;;;4.57;2.63;;;21.00;1.00;;;;;;7354177;19;20309;-65
2022/08/12 06:30:37;;;;;;;4.97;2.75;;;21.10;1.00;;;;;;7363880;19;20013;-66
2022/08/12 06:33:09;;;;;;;7.13;2.90;;;21.30;1.00;;;;;;7363239;19;20393;-66
2022/08/12 06:35:51;;;;;;;5.32;2.80;;;21.40;1.00;;;;;;7361665;19;20482;-67
2022/08/12 06:38:31;;;;;;;3.20;2.42;;;21.40;1.00;;;;;;7355525;19;20044;-67
2022/08/12 06:43:50;;;;;;;4.63;2.40;;;21.50;1.00;;;;;;7362232;19;20082;-66
2022/08/12 06:46:38;;;;;;;4.78;2.42;;;21.50;1.00;;;;;;7355339;19;20002;-67
2022/08/12 06:49:11;;;;;;;4.85;2.35;;;21.40;1.00;;;;;;7357035;19;20620;-65
2022/08/12 06:51:41;;;;;;;4.78;2.45;;;21.00;1.00;;;;;;7362008;19;20024;-66
2022/08/12 06:54:29;;;;;;;4.22;2.63;;;21.00;1.00;;;;;;7361349;19;20125;-66
2022/08/12 06:57:01;;;;;;;4.97;2.65;;;21.40;1.00;;;;;;7352854;19;20034;-66
2022/08/12 06:59:34;;;;;;;4.15;2.50;;;21.60;1.00;;;;;;7355562;19;20028;-67
2022/08/12 07:02:04;;;;;;;2.72;2.35;;;21.80;1.00;;;;;;7382924;19;20046;-67
2022/08/12 07:04:34;;;;;;;3.75;2.50;;;21.60;1.00;;;;;;7361642;19;20081;-67
2022/08/12 07:07:07;;;;;;;3.85;2.55;;;21.70;1.00;;;;;;7354142;19;20021;-67
2022/08/12 07:09:41;;;;;;;7.03;2.42;;;21.90;1.00;;;;;;7356842;19;20032;-69
2022/08/12 07:12:31;;;;;;;4.40;2.60;;;22.10;1.00;;;;;;7362527;19;20006;-65
2022/08/12 07:15:02;;;;;;;7.43;2.50;;;22.20;1.00;;;;;;7360579;19;20018;-65
2022/08/12 07:17:34;;;;;;;3.75;2.60;;;22.50;1.00;;;;;;7351337;19;20447;-65
2022/08/12 07:20:08;;;;;;;3.85;1.90;;;22.10;1.00;;;;;;7382833;19;20090;-65
2022/08/12 07:22:40;;;;;;;5.40;2.55;;;22.50;1.00;;;;;;7359337;19;20383;-66
2022/08/12 07:27:57;;;;;;;3.97;2.25;;;23.20;1.00;;;;;;7351643;19;20010;-64
2022/08/12 07:30:29;;;;;;;8.15;2.53;;;23.50;1.00;;;;;;7359442;19;20574;-64
2022/08/12 07:33:02;;;;;;;3.58;2.60;;;23.60;1.00;;;;;;7360942;19;20006;-64
2022/08/12 07:35:34;;;;;;;4.60;2.72;;;23.90;1.00;;;;;;7360671;19;20081;-65
2022/08/12 07:38:03;;;;;;;3.25;2.30;;;24.30;1.00;;;;;;7373938;19;20018;-65
2022/08/12 07:40:36;;;;;;;6.85;2.30;;;24.10;1.00;;;;;;7362292;19;20029;-69
2022/08/12 07:43:06;;;;;;;3.58;2.22;;;23.60;1.00;;;;;;7362806;19;20081;-66
2022/08/12 07:45:36;;;;;;;4.78;2.60;;;23.60;1.00;;;;;;7362583;19;20086;-65
2022/08/12 07:48:06;;;;;;;4.90;2.28;;;23.30;1.00;;;;;;7362138;19;20017;-65
2022/08/12 07:50:36;;;;;;;2.58;2.20;;;23.30;1.00;;;;;;7363452;19;20014;-65
2022/08/12 07:53:06;;;;;;;3.40;2.05;;;23.30;1.00;;;;;;7386409;19;20330;-64
2022/08/12 07:55:39;;;;;;;3.88;2.42;;;23.50;1.00;;;;;;7360342;19;20014;-66
2022/08/12 07:58:09;;;;;;;3.08;2.15;;;23.70;1.00;;;;;;7357174;19;20864;-66
2022/08/12 08:00:41;;;;;;;3.03;2.40;;;23.70;1.00;;;;;;7360342;19;20092;-66
2022/08/12 08:03:12;;;;;;;4.80;2.20;;;23.90;1.00;;;;;;7360185;19;20053;-66
2022/08/12 08:05:45;;;;;;;2.58;2.10;;;24.30;1.00;;;;;;7362964;19;20482;-65
2022/08/12 08:08:16;;;;;;;3.20;2.30;;;24.40;1.00;;;;;;7359662;19;20010;-66
2022/08/12 08:10:49;;;;;;;6.43;2.22;;;24.70;1.00;;;;;;7389760;19;20082;-65
2022/08/12 08:13:17;;;;;;;5.03;2.10;;;24.90;1.00;;;;;;7367894;19;20017;-65
2022/08/12 08:15:48;;;;;;;3.60;2.20;;;25.00;1.00;;;;;;7367060;19;20094;-66
2022/08/12 08:18:32;;;;;;;2.63;2.00;;;24.60;1.00;;;;;;7366594;19;20021;-66
2022/08/12 08:21:02;;;;;;;5.45;2.00;;;24.90;1.00;;;;;;7367732;19;20493;-65
2022/08/12 08:26:19;;;;;;;5.38;1.90;;;25.40;1.00;;;;;;7365109;19;20018;-66
2022/08/12 08:28:49;;;;;;;3.38;1.67;;;25.00;1.00;;;;;;7389638;19;20021;-65
2022/08/12 08:31:20;;;;;;;5.35;2.13;;;25.20;1.00;;;;;;7368399;19;20291;-65
2022/08/12 08:33:50;;;;;;;4.20;2.08;;;25.20;1.00;;;;;;7369264;19;20049;-65
2022/08/12 08:36:38;;;;;;;2.40;1.70;;;25.00;1.00;;;;;;7367583;19;20067;-65
2022/08/12 08:39:12;;;;;;;5.05;2.00;;;25.30;1.00;;;;;;7369477;19;20014;-65
2022/08/12 08:44:48;;;;;;;6.00;2.20;;;25.50;1.00;;;;;;7366734;19;20482;-66
2022/08/12 08:47:26;;;;;;;3.72;1.80;;;25.80;1.00;;;;;;7366770;19;20019;-65
2022/08/12 08:49:59;;;;;;;4.82;2.17;;;25.60;1.00;;;;;;7390038;19;20019;-65
2022/08/12 08:52:30;;;;;;;2.97;2.20;;;25.70;1.00;;;;;;7365550;19;20014;-66
2022/08/12 08:55:12;;;;;;;3.55;1.80;;;25.60;1.00;;;;;;7366261;19;20010;-66
2022/08/12 08:57:49;;;;;;;6.70;1.97;;;25.50;1.00;;;;;;7364144;19;20038;-65
2022/08/12 09:00:21;;;;;;;2.97;1.73;;;25.70;1.00;;;;;;7365174;19;20022;-65
2022/08/12 09:02:51;;;;;;;5.47;1.80;;;25.50;1.00;;;;;;7366854;19;20028;-65
2022/08/12 09:05:28;;;;;;;1.88;1.73;;;25.90;1.00;;;;;;7365812;19;20044;-65
2022/08/12 09:08:19;;;;;;;3.40;1.90;;;25.70;1.00;;;;;;7365825;19;20014;-66
2022/08/12 09:13:26;;;;;;;9.48;2.33;;;25.80;1.00;;;;;;7387328;19;20020;-66
2022/08/12 09:14:08;;;;;;;4.97;1.83;;;26.00;1.00;;;;;;7365904;19;20489;-64
2022/08/12 09:16:49;;;;;;;3.92;1.60;;;26.10;1.00;;;;;;7363413;19;20018;-66
2022/08/12 09:19:27;;;;;;;2.10;1.63;;;25.80;1.00;;;;;;7364177;19;20056;-67
2022/08/12 09:21:59;;;;;;;4.38;1.80;;;26.30;1.00;;;;;;7365533;19;20441;-66
2022/08/12 09:24:29;;;;;;;2.45;1.50;;;26.70;1.00;;;;;;7366116;19;20553;-66
2022/08/12 09:27:00;;;;;;;1.92;1.73;;;26.30;1.00;;;;;;7366285;19;20482;-66
2022/08/12 09:29:34;;;;;;;2.45;1.55;;;26.40;1.00;;;;;;7365653;19;20106;-66
2022/08/12 09:32:24;;;;;;;2.28;1.50;;;26.40;1.00;;;;;;7368173;19;20017;-67
2022/08/12 09:35:14;;;;;;;3.08;2.03;;;26.10;1.00;;;;;;7372590;19;20015;-68
2022/08/12 09:37:53;;;;;;;5.55;2.03;;;26.10;1.00;;;;;;7387664;19;20577;-68
2022/08/12 09:40:28;;;;;;;3.15;1.52;;;26.50;1.00;;;;;;7362723;19;20407;-69
2022/08/12 09:46:06;;;;;;;2.42;1.70;;;26.30;1.00;;;;;;7363249;19;20019;-68
2022/08/12 09:48:54;;;;;;;5.57;1.90;;;26.50;1.00;;;;;;7364914;19;20339;-68
2022/08/12 09:51:26;;;;;;;3.67;1.80;;;26.60;1.00;;;;;;7365970;19;20070;-68
2022/08/12 09:54:11;;;;;;;2.60;1.42;;;26.50;1.00;;;;;;7365642;19;20030;-68
2022/08/12 09:57:02;;;;;;;1.93;1.43;;;26.60;1.00;;;;;;7363133;19;20025;-68
2022/08/12 09:59:53;;;;;;;2.60;1.40;;;27.30;1.00;;;;;;7364313;19;20820;-69
2022/08/12 10:03:05;;;;;;;2.83;1.63;;;26.80;1.00;;;;;;7364513;19;20022;-70
2022/08/12 10:05:37;;;;;;;2.15;1.92;;;26.50;1.00;;;;;;7364047;19;20038;-68
2022/08/12 10:08:29;;;;;;;2.60;1.77;;;26.40;1.00;;;;;;7363815;19;20006;-68
2022/08/12 10:13:51;;;;;;;3.63;1.65;;;27.00;1.00;;;;;;7363341;19;20011;-68
2022/08/12 10:16:23;;;;;;;2.40;1.83;;;26.80;1.00;;;;;;7362316;19;20082;-68
2022/08/12 10:19:01;;;;;;;3.05;1.77;;;27.00;1.00;;;;;;7363532;19;20478;-68
2022/08/12 10:21:35;;;;;;;2.60;1.90;;;26.70;1.00;;;;;;7365345;19;20010;-70
2022/08/12 10:24:08;;;;;;;7.10;1.95;;;26.60;1.00;;;;;;7366197;19;20010;-68
2022/08/12 10:32:25;;;;;;;3.22;1.30;;;27.00;1.00;;;;;;7364563;19;20010;-68
2022/08/12 10:35:18;;;;;;;3.00;1.67;;;26.90;1.00;;;;;;7367459;19;20014;-68
2022/08/12 10:37:48;;;;;;;2.55;1.98;;;27.20;1.00;;;;;;7385686;19;20011;-69
2022/08/12 10:43:39;;;;;;;4.30;2.35;;;27.70;1.00;;;;;;7360912;19;20011;-69
2022/08/12 10:43:41;;;;;;;4.50;1.70;;;27.60;1.00;;;;;;7363050;19;20006;-68
2022/08/12 10:46:25;;;;;;;2.55;1.55;;;27.10;1.00;;;;;;7361926;19;20006;-69
2022/08/12 10:49:01;;;;;;;3.70;1.38;;;27.00;1.00;;;;;;7362807;19;20085;-68
2022/08/12 10:51:53;;;;;;;3.70;1.70;;;27.20;1.00;;;;;;7362618;19;20500;-69
2022/08/12 10:54:45;;;;;;;4.43;1.80;;;27.00;1.00;;;;;;7362785;19;20523;-67
2022/08/12 10:57:19;;;;;;;1.90;1.30;;;27.00;1.00;;;;;;7361588;19;20017;-68
2022/08/12 11:00:10;;;;;;;2.78;2.42;;;27.20;1.00;;;;;;7361977;19;20074;-68
2022/08/12 11:03:00;;;;;;;2.67;1.60;;;27.10;1.00;;;;;;7362883;19;20021;-67
2022/08/12 11:05:50;;;;;;;1.50;1.40;;;27.00;1.00;;;;;;7362520;19;20014;-69
2022/08/12 11:08:44;;;;;;;2.28;1.30;;;27.30;1.00;;;;;;7362381;19;20021;-68
2022/08/12 11:11:16;;;;;;;3.13;1.50;;;27.30;1.00;;;;;;7362526;19;20086;-67
2022/08/12 11:14:07;;;;;;;3.63;1.55;;;26.90;1.00;;;;;;7383875;19;20019;-68
2022/08/12 11:16:57;;;;;;;3.72;1.50;;;27.00;1.00;;;;;;7362058;19;20509;-68
2022/08/12 11:19:47;;;;;;;3.55;1.50;;;27.30;1.00;;;;;;7364563;19;20450;-68
2022/08/12 11:22:17;;;;;;;2.05;1.40;;;27.50;1.00;;;;;;7360572;19;20017;-69
2022/08/12 11:24:55;;;;;;;3.92;1.48;;;27.90;1.00;;;;;;7363430;19;20494;-68
2022/08/12 11:27:27;;;;;;;4.57;1.60;;;27.50;1.00;;;;;;7361236;19;20010;-69
2022/08/12 11:29:58;;;;;;;4.88;1.70;;;27.60;1.00;;;;;;7361560;19;20014;-69
2022/08/12 11:32:36;;;;;;;1.63;1.40;;;28.20;1.00;;;;;;7364152;19;20477;-68
2022/08/12 11:35:09;;;;;;;3.92;1.48;;;28.00;1.00;;;;;;7387469;19;20785;-68
2022/08/12 11:37:41;;;;;;;6.50;1.60;;;28.20;1.00;;;;;;7362442;19;20017;-69
2022/08/12 11:40:30;;;;;;;5.20;1.55;;;27.70;1.00;;;;;;7360813;19;20014;-67
2022/08/12 11:43:01;;;;;;;4.90;1.60;;;27.80;1.00;;;;;;7360043;19;20014;-68
2022/08/12 11:45:49;;;;;;;4.95;1.70;;;27.90;1.00;;;;;;7360776;19;20026;-69
2022/08/12 11:48:25;;;;;;;4.15;1.60;;;28.20;1.00;;;;;;7362874;19;20018;-68
2022/08/12 11:51:00;;;;;;;2.38;1.40;;;28.10;1.00;;;;;;7363033;19;20086;-68
2022/08/12 11:53:29;;;;;;;2.50;1.40;;;28.60;1.00;;;;;;7360852;19;20017;-69
2022/08/12 11:56:22;;;;;;;4.72;1.45;;;28.50;1.00;;;;;;7359369;19;20018;-67
2022/08/12 11:59:07;;;;;;;2.75;2.13;;;28.50;1.00;;;;;;7383032;19;20091;-69
2022/08/12 12:01:57;;;;;;;2.95;1.50;;;28.50;1.00;;;;;;7358778;19;20473;-69
2022/08/12 12:04:34;;;;;;;4.93;2.90;;;28.80;1.00;;;;;;7360255;19;20010;-69
2022/08/12 12:07:04;;;;;;;4.38;1.45;;;28.90;1.00;;;;;;7358395;19;20118;-68
2022/08/12 12:09:39;;;;;;;2.15;1.45;;;28.50;1.00;;;;;;7360752;19;20011;-68
2022/08/12 12:12:28;;;;;;;2.78;1.40;;;27.50;1.00;;;;;;7361034;19;20017;-67
2022/08/12 12:14:58;;;;;;;5.93;1.67;;;27.60;1.00;;;;;;7362759;19;20018;-68
2022/08/12 12:17:37;;;;;;;1.55;1.30;;;28.30;1.00;;;;;;7358138;19;20063;-68
2022/08/12 12:20:10;;;;;;;1.98;1.30;;;28.10;1.00;;;;;;7381187;19;20024;-68
2022/08/12 12:22:42;;;;;;;2.35;1.50;;;28.20;1.00;;;;;;7364218;19;20390;-68
2022/08/12 12:25:14;;;;;;;2.35;1.50;;;28.00;1.00;;;;;;7360867;19;20040;-68
2022/08/12 12:27:53;;;;;;;1.48;1.38;;;27.90;1.00;;;;;;7358959;19;20014;-68
2022/08/12 12:30:36;;;;;;;1.80;1.27;;;28.10;1.00;;;;;;7359688;19;20109;-68
2022/08/12 12:33:06;;;;;;;1.85;1.40;;;27.80;1.00;;;;;;7362725;19;20018;-68
2022/08/12 12:35:38;;;;;;;2.70;1.58;;;27.60;1.00;;;;;;7362753;19;20128;-69
2022/08/12 12:38:28;;;;;;;2.58;1.50;;;27.90;1.00;;;;;;7360069;19;20033;-68
2022/08/12 12:40:58;;;;;;;3.78;1.77;;;27.70;1.00;;;;;;7380924;19;20015;-69
2022/08/12 12:43:46;;;;;;;4.47;1.70;;;28.10;1.00;;;;;;7359284;19;20015;-68
2022/08/12 12:46:33;;;;;;;4.53;1.55;;;28.40;1.00;;;;;;7358509;19;20489;-69
2022/08/12 12:49:03;;;;;;;2.30;1.40;;;28.60;1.00;;;;;;7358832;19;20021;-68
2022/08/12 12:51:41;;;;;;;1.65;1.17;;;28.70;1.00;;;;;;7359584;19;20684;-69
2022/08/12 12:54:31;;;;;;;5.18;1.92;;;28.60;1.00;;;;;;7361821;19;20030;-69
2022/08/12 12:57:02;;;;;;;1.20;1.10;;;28.50;1.00;;;;;;7365579;19;20038;-68
2022/08/12 12:59:35;;;;;;;2.80;1.67;;;29.10;1.00;;;;;;7367191;19;20029;-68
2022/08/12 13:02:25;;;;;;;3.03;1.77;;;29.60;1.00;;;;;;7364128;19;20021;-68
2022/08/12 13:05:11;;;;;;;2.35;1.50;;;29.70;1.00;;;;;;7388638;19;20018;-68
2022/08/12 13:07:43;;;;;;;3.47;1.63;;;29.30;1.00;;;;;;7362857;19;20018;-68
2022/08/12 13:10:24;;;;;;;1.73;1.40;;;28.90;1.00;;;;;;7367914;19;20582;-68
2022/08/12 13:13:03;;;;;;;3.92;1.70;;;28.30;1.00;;;;;;7366024;19;20021;-67
2022/08/12 13:15:55;;;;;;;2.15;1.35;;;28.50;1.00;;;;;;7365413;19;20222;-68
2022/08/12 13:18:35;;;;;;;2.85;1.63;;;28.20;1.00;;;;;;7368949;19;20019;-68
2022/08/12 13:21:07;;;;;;;2.50;1.20;;;27.90;1.00;;;;;;7368010;19;20035;-68
2022/08/12 13:23:58;;;;;;;3.15;1.50;;;27.70;1.00;;;;;;7366241;19;20011;-69
2022/08/12 13:26:31;;;;;;;2.08;1.50;;;27.70;1.00;;;;;;7363878;19;20086;-68
2022/08/12 13:29:02;;;;;;;;;;;27.60;1.00;;;;;;7388587;19;20497;-68
2022/08/12 13:31:35;;;;;;;3.40;1.30;;;28.30;1.00;;;;;;7367109;19;20297;-68
2022/08/12 13:34:25;;;;;;;1.83;1.33;;;28.90;1.00;;;;;;7368167;19;20066;-68
2022/08/12 13:37:03;;;;;;;3.40;1.40;;;28.90;1.00;;;;;;7366477;19;20017;-68
2022/08/12 13:39:39;;;;;;;3.05;1.50;;;29.10;1.00;;;;;;7365822;19;20022;-69
2022/08/12 13:42:09;;;;;;;2.15;1.40;;;28.90;1.00;;;;;;7365553;19;20014;-68
2022/08/12 13:44:43;;;;;;;2.45;1.50;;;28.70;1.00;;;;;;7365731;19;20136;-68
2022/08/12 13:47:18;;;;;;;3.70;1.20;;;28.20;1.00;;;;;;7365098;19;20018;-69
2022/08/12 13:49:50;;;;;;;4.43;1.35;;;28.10;1.00;;;;;;7388078;19;20482;-68
2022/08/12 13:52:24;;;;;;;4.20;1.45;;;28.50;1.00;;;;;;7364750;19;20675;-68
2022/08/12 13:54:54;;;;;;;3.40;1.23;;;28.80;1.00;;;;;;7365056;19;20028;-69
2022/08/12 13:57:27;;;;;;;3.17;1.50;;;28.60;1.00;;;;;;7363968;19;20038;-70
2022/08/12 13:59:58;;;;;;;2.10;1.20;;;28.60;1.00;;;;;;7365020;19;20010;-68
2022/08/12 14:02:33;;;;;;;2.35;1.23;;;28.60;1.00;;;;;;7362893;19;20048;-68
2022/08/12 14:05:02;;;;;;;3.40;1.30;;;28.80;1.00;;;;;;7386623;19;20020;-68
2022/08/12 14:07:58;;;;;;;2.65;1.20;;;29.20;1.00;;;;;;7362291;19;20006;-68
2022/08/12 14:10:37;;;;;;;3.97;1.35;;;29.50;1.00;;;;;;7364077;19;20047;-69
2022/08/12 14:13:22;;;;;;;3.85;1.50;;;29.80;1.00;;;;;;7366012;19;20014;-69
2022/08/12 14:16:15;;;;;;;3.17;1.27;;;28.90;1.00;;;;;;7365165;19;20010;-69
2022/08/12 14:19:08;;;;;;;2.30;1.35;;;29.40;1.00;;;;;;7363302;19;20010;-69
2022/08/12 14:21:51;;;;;;;1.88;1.08;;;29.20;1.00;;;;;;7363155;19;20007;-68
2022/08/12 14:24:35;;;;;;;2.55;1.30;;;29.40;1.00;;;;;;7364196;19;20085;-69
2022/08/12 14:27:10;;;;;;;1.70;1.60;;;29.30;1.00;;;;;;7363148;19;20019;-68
2022/08/12 14:29:45;;;;;;;1.85;1.30;;;28.70;1.00;;;;;;7363900;19;20015;-68
2022/08/12 14:32:35;;;;;;;2.90;1.33;;;28.50;1.00;;;;;;7366377;19;20101;-68
2022/08/12 14:35:09;;;;;;;2.25;1.40;;;28.70;1.00;;;;;;7388341;19;20298;-70
2022/08/12 14:37:40;;;;;;;;;;;29.10;1.00;;;;;;7365300;19;20014;-69
2022/08/12 14:40:29;;;;;;;5.22;1.40;;;29.20;1.00;;;;;;7362218;19;19918;-68
2022/08/12 14:43:01;;;;;;;2.20;1.40;;;28.80;1.00;;;;;;7362647;19;20015;-68
2022/08/12 14:45:35;;;;;;;4.40;1.33;;;28.90;1.00;;;;;;7362895;19;20021;-68
2022/08/12 14:48:19;;;;;;;3.08;1.13;;;28.80;1.00;;;;;;7365351;19;20362;-68
2022/08/12 14:50:55;;;;;;;2.88;1.48;;;28.40;1.00;;;;;;7364790;19;20094;-69
2022/08/12 14:53:49;;;;;;;2.75;1.08;;;28.20;1.00;;;;;;7363090;19;20014;-71
2022/08/12 14:56:40;;;;;;;4.68;1.40;;;28.10;1.00;;;;;;7361726;19;20026;-68
2022/08/12 15:02:28;;;;;;;3.10;1.40;;;28.50;1.00;;;;;;7363860;19;20015;-68
2022/08/12 15:04:59;;;;;;;2.00;1.30;;;28.30;1.00;;;;;;7387708;19;20064;-69
2022/08/12 15:07:31;;;;;;;2.42;1.13;;;28.10;1.00;;;;;;7359753;19;20510;-68
2022/08/12 15:10:20;;;;;;;1.42;1.17;;;28.10;1.00;;;;;;7364849;19;20484;-67
2022/08/12 15:13:05;;;;;;;2.83;1.50;;;28.20;1.00;;;;;;7362513;19;20041;-67
2022/08/12 15:15:40;;;;;;;4.25;1.40;;;28.10;1.00;;;;;;7361571;19;20014;-68
2022/08/12 15:18:15;;;;;;;3.08;1.30;;;27.90;1.00;;;;;;7360839;19;20018;-70
2022/08/12 15:20:51;;;;;;;3.35;1.73;;;27.80;1.00;;;;;;7361559;19;20018;-69
2022/08/12 15:23:29;;;;;;;2.75;1.30;;;28.00;1.00;;;;;;7360474;19;20038;-68
2022/08/12 15:26:04;;;;;;;2.88;1.20;;;28.30;1.00;;;;;;7381270;19;20501;-68
2022/08/12 15:28:35;;;;;;;1.45;1.30;;;28.40;1.00;;;;;;7361177;19;20117;-68
2022/08/12 15:31:06;;;;;;;3.90;1.63;;;28.80;1.00;;;;;;7361927;19;20541;-68
2022/08/12 15:33:56;;;;;;;3.97;1.20;;;28.70;1.00;;;;;;7363517;19;20107;-69
2022/08/12 15:36:26;;;;;;;3.90;1.50;;;28.30;1.00;;;;;;7362625;19;20038;-68
2022/08/12 15:39:19;;;;;;;1.98;1.33;;;28.30;1.00;;;;;;7361614;19;20011;-68